Maple Grove, Canada
Current Conditions -  °F | °C
As of 12:00 AM on Thursday 23 Oct 2014 (Local Time) from CYUL Reporting Station
Broken Clouds Broken Clouds  
Wind Chill: 37°   Ceiling: 8500
Heat Index: 45°   Visibility: 15mi
Dew Point: 36°   Wind: 17mph
Humidity: 71%   Direction: 20°NNE
Pressure: 30.19"   Gusts: NA
Location:  45.32°N, 73.85°W
Report Text: CYUL 230400Z 02015KT 15SM FEW060 BKN085 07/02 A3019 RMK SC2AC5 SLP225
Loading
Personal Weather Stations






























Interactive Weather Map
Tropical Storm Tracking
New forecast layout! Learn more

10-Day Weather Forecast

Advertisements
Track Severe Weather on mobile